Clinton, Oklahoma
Current Conditions -  °F | °C
As of 6:55 PM on Sunday 23 Nov 2014 (Local Time) from KCLK Reporting Station
Overcast Overcast  
Wind Chill: 40°   Ceiling: 8000
Heat Index: 46°   Visibility: 10mi
Dew Point: 32°   Wind: 16mph
Humidity: 57%   Direction: 330°NNW
Pressure: 29.72"   Gusts: NA
Location:  35.52°N, 98.96°W
Report Text: KCLK 240055Z AUTO 33014KT 10SM SCT070 OVC080 08/00 A2972 RMK AO2
Loading
Personal Weather Stations






























Interactive Weather Map New forecast layout! Learn more

10-Day Weather Forecast

Advertisements
Track Severe Weather on mobile